createdAt,value
2022-08-05T00:01:51.862Z,24.53
2022-08-05T00:06:57.817Z,24.45
2022-08-05T00:12:03.831Z,24.37
2022-08-05T00:17:19.447Z,24.30
2022-08-05T00:22:25.209Z,24.19
2022-08-05T00:27:36.437Z,24.13
2022-08-05T00:32:44.368Z,24.10
2022-08-05T00:37:52.852Z,24.03
2022-08-05T00:43:00.934Z,23.98
2022-08-05T00:48:10.108Z,23.91
2022-08-05T00:54:00.520Z,23.86
2022-08-05T00:58:42.484Z,23.79
2022-08-05T01:03:52.890Z,23.69
2022-08-05T01:08:58.094Z,23.61
2022-08-05T01:14:15.624Z,23.56
2022-08-05T01:19:56.388Z,23.52
2022-08-05T01:25:15.667Z,23.41
2022-08-05T01:30:34.881Z,23.31
2022-08-05T01:35:51.131Z,23.22
2022-08-05T01:41:01.913Z,23.09
2022-08-05T01:46:16.669Z,23.03
2022-08-05T01:51:38.594Z,22.99
2022-08-05T01:58:29.305Z,22.94
2022-08-05T02:02:16.002Z,22.91
2022-08-05T02:07:22.886Z,22.88
2022-08-05T02:12:37.777Z,22.85
2022-08-05T02:18:30.717Z,22.80
2022-08-05T02:23:20.509Z,22.73
2022-08-05T02:28:32.984Z,22.69
2022-08-05T02:33:45.556Z,22.63
2022-08-05T02:38:55.918Z,22.58
2022-08-05T02:44:06.875Z,22.55
2022-08-05T02:49:22.395Z,22.52
2022-08-05T02:54:35.668Z,22.43
2022-08-05T02:59:50.697Z,22.37
2022-08-05T03:06:56.806Z,22.27
2022-08-05T03:11:55.692Z,22.22
2022-08-05T03:16:15.804Z,22.16
2022-08-05T03:21:20.825Z,22.06
2022-08-05T03:26:30.927Z,22.01
2022-08-05T03:31:57.207Z,21.85
2022-08-05T03:37:03.120Z,21.83
2022-08-05T03:42:10.809Z,21.83
2022-08-05T03:47:15.911Z,21.74
2022-08-05T03:52:38.146Z,21.77
2022-08-05T03:57:56.285Z,21.74
2022-08-05T04:03:04.588Z,21.38
2022-08-05T04:08:14.889Z,20.66
2022-08-05T04:13:50.234Z,20.61
2022-08-05T04:18:57.698Z,20.67
2022-08-05T04:24:06.342Z,20.70
2022-08-05T04:29:16.546Z,20.86
2022-08-05T04:34:32.255Z,20.98
2022-08-05T04:39:39.125Z,21.16
2022-08-05T04:44:46.776Z,21.16
2022-08-05T04:50:02.988Z,21.19
2022-08-05T04:55:16.757Z,21.33
2022-08-05T05:00:30.083Z,21.50
2022-08-05T05:06:40.163Z,21.64
2022-08-05T05:11:01.230Z,21.79
2022-08-05T05:16:09.379Z,21.96
2022-08-05T05:21:14.278Z,22.14
2022-08-05T05:26:19.500Z,22.37
2022-08-05T05:36:40.189Z,22.75
2022-08-05T05:41:45.029Z,22.87
2022-08-05T05:47:04.261Z,22.91
2022-08-05T05:52:12.982Z,22.88
2022-08-05T05:57:42.625Z,22.89
2022-08-05T06:02:50.846Z,22.97
2022-08-05T06:07:58.003Z,22.98
2022-08-05T06:13:07.727Z,22.98
2022-08-05T06:18:16.178Z,23.07
2022-08-05T06:23:22.483Z,23.10
2022-08-05T06:28:28.557Z,23.03
2022-08-05T06:34:07.298Z,23.06
2022-08-05T06:39:01.205Z,23.03
2022-08-05T06:44:06.412Z,23.03
2022-08-05T06:49:13.855Z,23.09
2022-08-05T06:54:19.048Z,23.18
2022-08-05T06:59:24.333Z,23.24
2022-08-05T07:04:32.003Z,23.23
2022-08-05T07:09:40.617Z,23.27
2022-08-05T07:15:00.674Z,23.31
2022-08-05T07:20:32.190Z,23.48
2022-08-05T07:25:54.908Z,23.64
2022-08-05T07:30:58.925Z,23.84
2022-08-05T07:36:20.806Z,24.04
2022-08-05T07:42:12.847Z,24.21
2022-08-05T07:46:52.587Z,24.45
2022-08-05T07:52:01.374Z,24.71
2022-08-05T07:57:16.969Z,24.88
2022-08-05T08:03:14.554Z,25.11
2022-08-05T08:08:00.809Z,25.31
2022-08-05T08:13:05.911Z,25.49
2022-08-05T08:18:14.376Z,25.63
2022-08-05T08:24:02.598Z,25.81
2022-08-05T08:28:55.297Z,26.03
2022-08-05T08:34:04.674Z,26.32
2022-08-05T08:39:15.435Z,26.63
2022-08-05T08:45:18.936Z,27.07
2022-08-05T08:50:13.057Z,27.44
2022-08-05T08:55:32.024Z,27.69
2022-08-05T09:00:45.389Z,27.87
2022-08-05T09:06:08.971Z,28.10
2022-08-05T09:11:18.981Z,28.26
2022-08-05T09:16:48.714Z,28.19
2022-08-05T09:22:18.514Z,28.26
2022-08-05T09:28:04.147Z,28.50
2022-08-05T09:33:04.981Z,28.81
2022-08-05T09:38:12.580Z,29.08
2022-08-05T09:43:40.636Z,29.12
2022-08-05T09:49:06.883Z,29.05
2022-08-05T09:54:12.220Z,29.22
2022-08-05T09:59:27.978Z,29.26
2022-08-05T10:04:39.801Z,29.22
2022-08-05T10:10:04.273Z,29.18
2022-08-05T10:15:28.774Z,29.31
2022-08-05T10:20:41.997Z,29.42
2022-08-05T10:25:47.329Z,29.27
2022-08-05T10:32:51.665Z,29.36
2022-08-05T10:36:26.141Z,29.45
2022-08-05T10:41:45.165Z,29.69
2022-08-05T10:46:56.996Z,29.81
2022-08-05T10:52:05.270Z,29.80
2022-08-05T10:57:16.137Z,29.90
2022-08-05T11:02:37.705Z,29.95
2022-08-05T11:08:12.736Z,30.09
2022-08-05T11:13:54.839Z,30.25
2022-08-05T11:20:11.215Z,30.31
2022-08-05T11:26:04.761Z,30.50
2022-08-05T11:31:57.115Z,30.62
2022-08-05T11:36:54.022Z,30.80
2022-08-05T11:42:02.385Z,30.91
2022-08-05T11:47:15.153Z,31.07
2022-08-05T11:52:31.047Z,30.99
2022-08-05T11:58:08.121Z,30.82
2022-08-05T12:03:01.456Z,31.13
2022-08-05T12:08:11.546Z,30.91
2022-08-05T12:13:47.829Z,30.90
2022-08-05T12:18:52.466Z,30.66
2022-08-05T12:24:04.982Z,30.68
2022-08-05T12:29:16.146Z,30.47
2022-08-05T12:34:23.705Z,30.37
2022-08-05T12:39:38.782Z,29.88
2022-08-05T12:44:44.745Z,29.81
2022-08-05T12:50:03.725Z,29.91
2022-08-05T12:55:26.186Z,30.38
2022-08-05T13:02:03.767Z,30.06
2022-08-05T13:05:59.138Z,30.12
2022-08-05T13:11:09.058Z,30.20
2022-08-05T13:16:17.257Z,29.95
2022-08-05T13:21:22.520Z,29.80
2022-08-05T13:26:36.267Z,29.76
2022-08-05T13:32:04.931Z,29.98
2022-08-05T13:37:08.864Z,29.91
2022-08-05T13:42:16.610Z,29.73
2022-08-05T13:47:36.006Z,29.94
2022-08-05T13:52:49.869Z,29.85
2022-08-05T13:57:57.754Z,29.88
2022-08-05T14:03:04.219Z,29.80
2022-08-05T14:08:20.328Z,29.68
2022-08-05T14:13:34.855Z,29.90
2022-08-05T14:18:40.176Z,30.43
2022-08-05T14:23:46.475Z,30.57
2022-08-05T14:28:55.684Z,30.53
2022-08-05T14:34:01.751Z,31.10
2022-08-05T14:39:10.894Z,30.40
2022-08-05T14:44:20.186Z,30.68
2022-08-05T14:49:25.843Z,30.48
2022-08-05T14:54:52.816Z,29.95
2022-08-05T15:00:00.994Z,29.77
2022-08-05T15:05:08.772Z,29.75
2022-08-05T15:10:18.740Z,29.52
2022-08-05T15:15:55.866Z,29.51
2022-08-05T15:21:07.536Z,29.68
2022-08-05T15:26:13.199Z,29.61
2022-08-05T15:31:21.152Z,29.54
2022-08-05T15:36:27.475Z,29.58
2022-08-05T15:41:57.793Z,29.05
2022-08-05T15:47:02.197Z,28.68
2022-08-05T15:52:15.823Z,27.71
2022-08-05T15:57:23.225Z,26.88
2022-08-05T16:02:32.271Z,26.90
2022-08-05T16:07:38.748Z,26.75
2022-08-05T16:12:52.981Z,26.42
2022-08-05T16:18:04.323Z,26.17
2022-08-05T16:23:15.568Z,25.94
2022-08-05T16:28:29.265Z,25.61
2022-08-05T16:33:41.243Z,24.98
2022-08-05T16:38:54.712Z,24.02
2022-08-05T16:44:00.951Z,23.40
2022-08-05T16:49:12.452Z,22.80
2022-08-05T16:54:32.929Z,22.17
2022-08-05T17:00:01.298Z,21.84
2022-08-05T17:05:08.762Z,21.43
2022-08-05T17:10:14.453Z,20.60
2022-08-05T17:15:19.914Z,20.28
2022-08-05T17:20:27.666Z,20.01
2022-08-05T17:25:39.939Z,19.71
2022-08-05T17:30:52.122Z,19.75
2022-08-05T17:36:07.661Z,19.66
2022-08-05T17:42:16.605Z,19.50
2022-08-05T17:46:40.656Z,19.29
2022-08-05T17:51:50.116Z,19.24
2022-08-05T17:56:55.111Z,19.21
2022-08-05T18:02:03.487Z,19.06
2022-08-05T18:07:18.433Z,19.01
2022-08-05T18:12:25.781Z,19.07
2022-08-05T18:18:00.831Z,19.12
2022-08-05T18:23:09.217Z,19.14
2022-08-05T18:28:17.908Z,19.15
2022-08-05T18:33:28.405Z,19.27
2022-08-05T18:38:57.583Z,19.35
2022-08-05T18:44:06.537Z,19.36
2022-08-05T18:49:30.713Z,19.36
2022-08-05T18:54:51.811Z,19.27
2022-08-05T19:00:03.204Z,19.15
2022-08-05T19:06:05.450Z,19.16
2022-08-05T19:10:37.769Z,19.14
2022-08-05T19:15:58.854Z,19.02
2022-08-05T19:21:05.372Z,19.06
2022-08-05T19:26:16.686Z,19.00
2022-08-05T19:31:22.964Z,18.91
2022-08-05T19:36:29.374Z,18.95
2022-08-05T19:42:06.892Z,18.93
2022-08-05T19:47:03.062Z,18.80
2022-08-05T19:52:30.728Z,18.61
2022-08-05T19:57:49.145Z,18.66
2022-08-05T20:03:08.452Z,18.54
2022-08-05T20:08:15.270Z,18.16
2022-08-05T20:13:54.768Z,17.90
2022-08-05T20:18:55.567Z,17.60
2022-08-05T20:24:01.372Z,17.43
2022-08-05T20:29:27.329Z,17.30
2022-08-05T20:34:33.126Z,17.07
2022-08-05T20:39:39.307Z,16.94
2022-08-05T20:44:48.506Z,16.97
2022-08-05T20:49:53.436Z,16.85
2022-08-05T20:55:56.532Z,16.88
2022-08-05T21:00:49.712Z,16.87
2022-08-05T21:05:55.438Z,16.75
2022-08-05T21:11:00.701Z,16.59
2022-08-05T21:16:17.397Z,16.53
2022-08-05T21:21:24.475Z,16.62
2022-08-05T21:26:29.599Z,16.67
2022-08-05T21:31:41.590Z,16.67
2022-08-05T21:36:46.773Z,16.58
2022-08-05T21:42:01.159Z,16.53
2022-08-05T21:47:32.715Z,16.50
2022-08-05T21:52:34.168Z,16.45
2022-08-05T21:57:42.758Z,16.48
2022-08-05T22:02:50.378Z,16.53
2022-08-05T22:07:58.812Z,16.56
2022-08-05T22:14:18.470Z,16.58
2022-08-05T22:18:36.487Z,16.61
2022-08-05T22:24:02.764Z,16.64
2022-08-05T22:29:09.493Z,16.67
2022-08-05T22:34:20.092Z,16.66
2022-08-05T22:39:33.926Z,16.67
2022-08-05T22:44:39.573Z,16.65
2022-08-05T22:50:20.156Z,16.53
2022-08-05T22:55:19.021Z,16.23
2022-08-05T23:00:26.662Z,16.10
2022-08-05T23:05:35.897Z,16.10
2022-08-05T23:10:43.010Z,16.04
2022-08-05T23:15:50.265Z,16.04
2022-08-05T23:20:57.839Z,16.05
2022-08-05T23:26:03.158Z,16.05
2022-08-05T23:31:16.942Z,16.00
2022-08-05T23:36:28.328Z,15.89
2022-08-05T23:41:48.770Z,15.83
2022-08-05T23:46:53.740Z,15.71
2022-08-05T23:52:16.298Z,15.62
2022-08-05T23:57:21.303Z,15.56
